Terminal Aerodrome Forecast
Issued by NWS Quad Cities IA IL

Home | Current Version | Previous Version | Text Only | Print | Product List | Glossary On
Versions: 1 2 3 4 5 6 7 8 9 10 11 12 13 14 15 16 17 18
277
FTUS43 KDVN 091139
TAFDBQ
TAF
KDBQ 091139Z 0912/1012 34018G25KT P6SM SCT020 BKN050
      TEMPO 0912/0915 6SM -SHSN BKN020
     FM091500 33019G26KT P6SM OVC018
     FM100000 32016KT P6SM BKN025
     FM100300 33014KT P6SM SCT025=

USA.gov is the U.S. government's official web portal to all federal, state and local government web resources and services.